Hollis, Illinois
Current Conditions -  °F | °C
As of 4:54 PM on Monday 22 Dec 2014 (Local Time) from KPIA Reporting Station
Haze Haze  
Wind Chill: 41°   Ceiling: 400
Heat Index: 45°   Visibility: 4mi
Dew Point: 42°   Wind: 7mph
Humidity: 90%   Direction: 140°SE
Pressure: 29.58"   Gusts: NA
Location:  40.6465°N, 89.6859°W
Report Text: KPIA 222254Z 14006KT 4SM BR OVC004 07/06 A2958 RMK AO2 SLP021 T00720056
Loading
Personal Weather Stations






























Interactive Weather Map New forecast layout! Learn more

10-Day Weather Forecast

Advertisements
Track Severe Weather on mobile